Time;durP1;ratioP1;P1;durP2;ratioP2;P2;SDS_P1;SDS_P2;PMS_P1;PMS_P2;Temp;Humidity;BMP_temperature;BMP_pressure;BME280_temperature;BME280_humidity;BME280_pressure;Samples;Min_cycle;Max_cycle;Signal;HPM_P1;HPM_P2
2021/08/19 00:01:34;;;;;;;;;;;;;;;18.62;100.00;98770.38;5001226;28;20004;-78
2021/08/19 00:03:59;;;;;;;;;;;;;;;18.75;100.00;98765.97;5004326;28;19976;-78
2021/08/19 00:06:25;;;;;;;;;;;;;;;18.41;100.00;98777.06;4993824;28;19924;-78
2021/08/19 00:08:50;;;;;;;;;;;;;;;18.83;100.00;98751.59;5004688;28;19926;-78
2021/08/19 00:11:15;;;;;;;;;;;;;;;18.47;100.00;98761.81;5004458;28;19921;-79
2021/08/19 00:13:41;;;;;;;;;;;;;;;18.49;100.00;98761.72;5006195;28;19940;-78
2021/08/19 00:16:09;;;;;;;;;;;;;;;18.15;100.00;98779.63;4996468;28;19976;-78
2021/08/19 00:18:35;;;;;;;;;;;;;;;18.43;100.00;98765.59;4992750;28;19921;-78
2021/08/19 00:21:00;;;;;;;;;;;;;;;18.25;100.00;98762.44;4993335;28;19932;-78
2021/08/19 00:23:26;;;;;;;;;;;;;;;18.91;100.00;98757.13;4991483;28;19917;-78
2021/08/19 00:25:51;;;;;;;;;;;;;;;18.75;100.00;98755.53;4996794;28;19933;-78
2021/08/19 00:28:16;;;;;;;;;;;;;;;18.37;100.00;98766.81;4994924;28;19984;-78
2021/08/19 00:30:41;;;;;;;;;;;;;;;18.54;100.00;98762.22;4994363;28;20547;-78
2021/08/19 00:33:07;;;;;;;;;;;;;;;18.74;100.00;98753.03;5004912;28;19914;-78
2021/08/19 00:35:32;;;;;;;;;;;;;;;18.67;100.00;98747.41;4990773;28;19920;-79
2021/08/19 00:37:58;;;;;;;;;;;;;;;18.18;100.00;98750.78;5000484;28;19997;-78
2021/08/19 00:40:23;;;;;;;;;;;;;;;18.02;100.00;98756.16;5007811;28;19918;-78
2021/08/19 00:42:49;;;;;;;;;;;;;;;18.43;100.00;98754.28;4998384;28;20523;-78
2021/08/19 00:45:14;;;;;;;;;;;;;;;18.51;100.00;98752.84;4998992;28;19925;-78
2021/08/19 00:47:40;;;;;;;;;;;;;;;18.46;100.00;98754.94;5000446;28;20538;-79
2021/08/19 00:50:06;;;;;;;;;;;;;;;17.91;100.00;98759.47;4999544;28;19928;-78
2021/08/19 00:52:31;;;;;;;;;;;;;;;18.43;100.00;98751.69;5005818;28;20476;-78
2021/08/19 00:54:57;;;;;;;;;;;;;;;18.86;100.00;98746.16;4999159;28;19936;-78
2021/08/19 00:57:22;;;;;;;;;;;;;;;18.27;100.00;98760.56;5007832;28;19917;-78
2021/08/19 00:59:47;;;;;;;;;;;;;;;18.21;100.00;98753.16;5001615;28;20023;-78
2021/08/19 01:02:13;;;;;;;;;;;;;;;18.43;100.00;98752.53;5007694;28;19924;-78
2021/08/19 01:04:39;;;;;;;;;;;;;;;18.41;100.00;98746.59;4997304;28;19917;-78
2021/08/19 01:07:05;;;;;;;;;;;;;;;18.48;100.00;98747.03;4998843;28;20352;-78
2021/08/19 01:09:30;;;;;;;;;;;;;;;18.36;100.00;98749.53;5000054;28;19992;-78
2021/08/19 01:11:55;;;;;;;;;;;;;;;18.29;100.00;98748.28;4999756;28;19921;-78
2021/08/19 01:14:21;;;;;;;;;;;;;;;18.45;100.00;98757.63;5009043;28;19955;-78
2021/08/19 01:16:46;;;;;;;;;;;;;;;18.49;100.00;98743.44;5001916;28;19928;-78
2021/08/19 01:19:19;;;;;;;;;;;;;;;18.40;100.00;98744.91;4997976;28;19981;-78
2021/08/19 01:21:45;;;;;;;;;;;;;;;18.39;100.00;98756.28;4998773;28;19929;-78
2021/08/19 01:24:10;;;;;;;;;;;;;;;18.34;100.00;98759.22;4996783;28;19918;-78
2021/08/19 01:26:36;;;;;;;;;;;;;;;18.33;100.00;98757.53;5000270;28;19971;-78
2021/08/19 01:29:04;;;;;;;;;;;;;;;18.39;100.00;98754.53;5016596;28;19921;-79
2021/08/19 01:31:29;;;;;;;;;;;;;;;18.27;100.00;98763.19;5001328;28;19901;-78
2021/08/19 01:33:55;;;;;;;;;;;;;;;18.73;100.00;98757.41;5008820;28;19925;-78
2021/08/19 01:36:20;;;;;;;;;;;;;;;18.77;100.00;98753.69;5000186;28;19930;-78
2021/08/19 01:38:46;;;;;;;;;;;;;;;19.04;100.00;98752.69;5004973;28;20020;-79
2021/08/19 01:41:11;;;;;;;;;;;;;;;18.76;100.00;98751.97;5006726;28;19924;-78
2021/08/19 01:43:37;;;;;;;;;;;;;;;18.92;100.00;98746.56;5002814;28;20377;-78
2021/08/19 01:46:08;;;;;;;;;;;;;;;19.25;100.00;98742.50;4997647;28;20533;-78
2021/08/19 01:48:35;;;;;;;;;;;;;;;18.50;100.00;98752.97;4987793;28;19918;-79
2021/08/19 01:51:00;;;;;;;;;;;;;;;18.41;100.00;98757.03;4998387;28;19921;-78
2021/08/19 01:53:25;;;;;;;;;;;;;;;18.32;100.00;98758.47;4996401;28;20547;-78
2021/08/19 01:55:51;;;;;;;;;;;;;;;18.59;100.00;98745.34;5004934;28;19929;-79
2021/08/19 01:58:17;;;;;;;;;;;;;;;18.76;100.00;98741.53;4996315;28;19928;-79
2021/08/19 02:00:43;;;;;;;;;;;;;;;18.14;100.00;98754.50;4992648;28;19960;-79
2021/08/19 02:03:08;;;;;;;;;;;;;;;18.14;100.00;98757.13;5004013;28;20345;-80
2021/08/19 02:05:35;;;;;;;;;;;;;;;17.97;100.00;98763.44;5004048;28;19952;-79
2021/08/19 02:08:00;;;;;;;;;;;;;;;17.70;100.00;98771.28;4989781;28;19917;-79
2021/08/19 02:10:26;;;;;;;;;;;;;;;18.26;100.00;98761.50;5009048;28;19921;-79
2021/08/19 02:12:51;;;;;;;;;;;;;;;18.17;100.00;98770.75;4994271;28;19948;-79
2021/08/19 02:15:16;;;;;;;;;;;;;;;17.98;100.00;98765.94;5002478;28;19914;-80
2021/08/19 02:17:42;;;;;;;;;;;;;;;18.14;100.00;98765.75;4996753;28;19946;-80
2021/08/19 02:20:07;;;;;;;;;;;;;;;18.18;100.00;98769.84;4996061;28;19917;-79
2021/08/19 02:22:33;;;;;;;;;;;;;;;18.23;100.00;98768.69;4993922;28;19925;-79
2021/08/19 02:24:58;;;;;;;;;;;;;;;18.24;100.00;98771.19;5002405;28;19939;-80
2021/08/19 02:27:23;;;;;;;;;;;;;;;17.79;100.00;98770.69;5001334;28;19975;-80
2021/08/19 02:29:49;;;;;;;;;;;;;;;17.83;100.00;98790.41;5002429;28;20232;-80
2021/08/19 02:32:15;;;;;;;;;;;;;;;17.83;100.00;98786.97;4994457;28;20015;-79
2021/08/19 02:34:40;;;;;;;;;;;;;;;18.34;100.00;98774.84;5000092;28;19913;-81
2021/08/19 02:37:05;;;;;;;;;;;;;;;18.90;100.00;98755.44;4993749;28;19922;-80
2021/08/19 02:39:31;;;;;;;;;;;;;;;18.76;100.00;98751.97;5006632;28;19941;-80
2021/08/19 02:41:56;;;;;;;;;;;;;;;19.13;100.00;98745.97;5001534;28;20396;-80
2021/08/19 02:44:21;;;;;;;;;;;;;;;18.35;100.00;98752.22;4996509;28;19983;-80
2021/08/19 02:46:47;;;;;;;;;;;;;;;18.38;100.00;98754.59;4992782;28;19926;-80
2021/08/19 02:49:12;;;;;;;;;;;;;;;18.51;100.00;98752.00;4993905;28;20016;-80
2021/08/19 02:51:37;;;;;;;;;;;;;;;18.00;100.00;98758.03;4996037;28;19992;-80
2021/08/19 02:54:02;;;;;;;;;;;;;;;18.22;100.00;98754.81;4998701;28;19924;-80
2021/08/19 02:56:28;;;;;;;;;;;;;;;17.94;100.00;98754.06;4999463;28;20032;-80
2021/08/19 02:58:53;;;;;;;;;;;;;;;18.22;100.00;98762.63;5000320;28;19922;-80
2021/08/19 03:01:19;;;;;;;;;;;;;;;18.05;100.00;98758.56;5018583;28;19929;-80
2021/08/19 03:03:44;;;;;;;;;;;;;;;18.26;100.00;98758.06;4994124;28;19937;-80
2021/08/19 03:06:09;;;;;;;;;;;;;;;18.41;100.00;98748.38;5000905;28;19995;-80
2021/08/19 03:08:35;;;;;;;;;;;;;;;18.54;100.00;98739.59;4994983;28;19921;-80
2021/08/19 03:11:00;;;;;;;;;;;;;;;18.39;100.00;98738.88;4992563;28;19925;-80
2021/08/19 03:13:25;;;;;;;;;;;;;;;18.42;100.00;98737.00;5001712;28;19936;-79
2021/08/19 03:15:51;;;;;;;;;;;;;;;18.52;100.00;98728.44;4986196;28;19979;-80
2021/08/19 03:18:16;;;;;;;;;;;;;;;18.57;100.00;98733.34;4995448;28;19932;-80
2021/08/19 03:20:41;;;;;;;;;;;;;;;18.70;100.00;98736.78;4997063;28;19944;-80
2021/08/19 03:23:07;;;;;;;;;;;;;;;18.77;100.00;98731.97;5002800;28;19948;-80
2021/08/19 03:25:32;;;;;;;;;;;;;;;18.22;100.00;98744.38;4992061;28;19917;-80
2021/08/19 03:28:02;;;;;;;;;;;;;;;18.04;100.00;98754.31;4993350;28;19924;-80
2021/08/19 03:30:27;;;;;;;;;;;;;;;18.11;100.00;98752.94;4990316;28;20361;-80
2021/08/19 03:32:53;;;;;;;;;;;;;;;18.60;100.00;98731.34;4993691;28;19964;-80
2021/08/19 03:35:18;;;;;;;;;;;;;;;18.43;100.00;98743.88;5001490;28;19922;-81
2021/08/19 03:37:44;;;;;;;;;;;;;;;18.62;100.00;98730.41;4984657;28;20004;-80
2021/08/19 03:40:10;;;;;;;;;;;;;;;18.20;100.00;98743.69;5010108;28;19917;-80
2021/08/19 03:42:37;;;;;;;;;;;;;;;18.65;100.00;98744.06;4993898;28;19929;-81
2021/08/19 03:45:04;;;;;;;;;;;;;;;18.43;100.00;98736.03;4993427;28;19976;-81
2021/08/19 03:47:29;;;;;;;;;;;;;;;18.67;100.00;98731.75;4991620;28;19925;-81
2021/08/19 03:49:55;;;;;;;;;;;;;;;18.76;100.00;98741.53;5000662;28;19909;-80
2021/08/19 03:52:20;;;;;;;;;;;;;;;18.47;100.00;98734.91;5006242;28;19995;-81
2021/08/19 03:54:45;;;;;;;;;;;;;;;18.42;100.00;98737.00;4994922;28;19914;-80
2021/08/19 03:57:11;;;;;;;;;;;;;;;19.11;100.00;98722.63;4999894;28;19991;-81
2021/08/19 03:59:36;;;;;;;;;;;;;;;19.29;100.00;98717.81;5003646;28;20420;-80
2021/08/19 04:02:01;;;;;;;;;;;;;;;19.39;100.00;98718.00;5001682;28;19918;-80
2021/08/19 04:04:27;;;;;;;;;;;;;;;19.39;100.00;98718.00;4995263;28;20488;-80
2021/08/19 04:06:52;;;;;;;;;;;;;;;18.60;100.00;98725.28;4993540;28;19996;-80
2021/08/19 04:09:17;;;;;;;;;;;;;;;18.83;100.00;98720.28;4999763;28;20616;-80
2021/08/19 04:11:43;;;;;;;;;;;;;;;18.99;100.00;98726.06;4992497;28;19918;-80
2021/08/19 04:14:08;;;;;;;;;;;;;;;19.13;100.00;98718.09;4994720;28;19925;-80
2021/08/19 04:16:33;;;;;;;;;;;;;;;18.71;100.00;98728.00;4991933;28;20016;-81
2021/08/19 04:18:59;;;;;;;;;;;;;;;18.75;100.00;98731.22;4999307;28;19917;-81
2021/08/19 04:21:24;;;;;;;;;;;;;;;19.11;100.00;98722.63;5002031;28;20008;-80
2021/08/19 04:23:49;;;;;;;;;;;;;;;18.89;100.00;98735.50;4993688;28;20327;-80
2021/08/19 04:26:15;;;;;;;;;;;;;;;18.64;100.00;98726.75;4993349;28;19920;-80
2021/08/19 04:28:40;;;;;;;;;;;;;;;18.68;100.00;98738.66;5010958;28;19968;-80
2021/08/19 04:31:05;;;;;;;;;;;;;;;18.67;100.00;98731.75;4993211;28;20037;-80
2021/08/19 04:33:31;;;;;;;;;;;;;;;18.51;100.00;98728.53;4995431;28;20558;-80
2021/08/19 04:35:57;;;;;;;;;;;;;;;18.26;100.00;98742.41;4998123;28;19922;-80
2021/08/19 04:38:22;;;;;;;;;;;;;;;18.35;100.00;98741.78;4992253;28;19933;-79
2021/08/19 04:40:47;;;;;;;;;;;;;;;18.74;100.00;98732.97;4993035;28;20008;-80
2021/08/19 04:43:13;;;;;;;;;;;;;;;18.83;100.00;98730.72;5001101;28;19917;-79
2021/08/19 04:45:38;;;;;;;;;;;;;;;18.89;100.00;98735.50;4993596;28;19998;-80
2021/08/19 04:48:04;;;;;;;;;;;;;;;18.56;100.00;98737.69;4993767;28;20278;-80
2021/08/19 04:50:29;;;;;;;;;;;;;;;18.73;100.00;98740.94;4992689;28;19924;-80
2021/08/19 04:52:54;;;;;;;;;;;;;;;18.51;100.00;98746.78;4992420;28;20297;-80
2021/08/19 04:55:20;;;;;;;;;;;;;;;18.98;100.00;98747.91;4984555;28;19948;-80
2021/08/19 04:57:45;;;;;;;;;;;;;;;18.35;100.00;98747.84;4994919;28;19932;-80
2021/08/19 05:00:11;;;;;;;;;;;;;;;18.62;100.00;98744.28;4994326;28;20188;-80
2021/08/19 05:02:36;;;;;;;;;;;;;;;18.23;100.00;98766.94;4997559;28;19918;-80
2021/08/19 05:05:01;;;;;;;;;;;;;;;18.54;100.00;98762.22;4993869;28;19928;-80
2021/08/19 05:07:27;;;;;;;;;;;;;;;18.50;100.00;98766.00;4992097;28;19996;-80
2021/08/19 05:09:52;;;;;;;;;;;;;;;18.32;100.00;98774.13;4998700;28;19922;-80
2021/08/19 05:12:18;;;;;;;;;;;;;;;17.86;100.00;98779.78;4990166;28;19953;-79
2021/08/19 05:14:43;;;;;;;;;;;;;;;17.95;100.00;98781.78;4995290;28;19975;-80
2021/08/19 05:17:08;;;;;;;;;;;;;;;18.57;100.00;98772.47;5012047;28;20413;-79
2021/08/19 05:19:34;;;;;;;;;;;;;;;18.76;100.00;98751.97;4992191;28;19917;-80
2021/08/19 05:21:59;;;;;;;;;;;;;;;18.80;100.00;98748.25;4992125;28;19960;-79
2021/08/19 05:24:25;;;;;;;;;;;;;;;18.62;100.00;98754.72;4986514;28;19937;-79
2021/08/19 05:26:50;;;;;;;;;;;;;;;18.68;100.00;98758.66;4985361;28;19956;-79
2021/08/19 05:29:15;;;;;;;;;;;;;;;19.32;100.00;98753.34;4999590;28;19933;-79
2021/08/19 05:31:40;;;;;;;;;;;;;;;18.78;100.00;98749.31;5006397;28;19921;-78
2021/08/19 05:34:08;;;;;;;;;;;;;;;19.14;100.00;98755.50;4993147;28;19983;-79
2021/08/19 05:36:34;;;;;;;;;;;;;;;19.16;100.00;98754.44;4999041;28;19933;-79
2021/08/19 05:38:59;;;;;;;;;;;;;;;19.05;100.00;98751.75;4994653;28;19921;-79
2021/08/19 05:41:24;;;;;;;;;;;;;;;19.23;100.00;98747.81;4996413;28;20036;-80
2021/08/19 05:43:50;;;;;;;;;;;;;;;19.39;100.00;98750.16;4995338;28;19976;-79
2021/08/19 05:46:15;;;;;;;;;;;;;;;19.30;100.00;98744.78;4993414;28;19945;-79
2021/08/19 05:48:40;;;;;;;;;;;;;;;19.27;100.00;98750.19;5011888;28;20004;-79
2021/08/19 05:51:05;;;;;;;;;;;;;;;18.59;100.00;98760.16;4994809;28;20410;-79
2021/08/19 05:53:31;;;;;;;;;;;;;;;19.18;100.00;98756.91;4998257;28;19917;-79
2021/08/19 05:55:56;;;;;;;;;;;;;;;19.08;100.00;98761.97;4993854;28;19989;-79
2021/08/19 05:58:22;;;;;;;;;;;;;;;19.07;100.00;98757.69;4995511;28;19932;-79
2021/08/19 06:00:47;;;;;;;;;;;;;;;18.97;100.00;98764.50;4994549;28;19972;-79
2021/08/19 06:03:16;;;;;;;;;;;;;;;19.22;100.00;98763.59;5001884;28;19929;-79
2021/08/19 06:05:41;;;;;;;;;;;;;;;18.98;100.00;98760.97;4997364;28;21267;-79
2021/08/19 06:08:07;;;;;;;;;;;;;;;19.52;100.00;98759.72;4996539;28;19922;-79
2021/08/19 06:10:32;;;;;;;;;;;;;;;19.17;100.00;98765.69;4993115;28;19929;-79
2021/08/19 06:12:57;;;;;;;;;;;;;;;19.13;100.00;98769.47;5006026;28;19925;-78
2021/08/19 06:15:23;;;;;;;;;;;;;;;19.30;100.00;98766.50;4998033;28;20403;-79
2021/08/19 06:17:48;;;;;;;;;;;;;;;19.08;100.00;98777.63;4994383;28;19925;-79
2021/08/19 06:20:13;;;;;;;;;;;;;;;19.14;100.00;98782.41;4993190;28;19922;-79
2021/08/19 06:22:40;;;;;;;;;;;;;;;18.95;100.00;98782.03;4998685;28;19924;-79
2021/08/19 06:25:05;;;;;;;;;;;;;;;19.04;100.00;98785.78;4996839;28;20016;-80
2021/08/19 06:27:30;;;;;;;;;;;;;;;19.31;100.00;98777.78;4998734;28;20033;-80
2021/08/19 06:29:56;;;;;;;;;;;;;;;18.91;100.00;98786.66;5013266;28;19968;-80
2021/08/19 06:32:23;;;;;;;;;;;;;;;18.73;100.00;98798.31;4999308;28;19929;-79
2021/08/19 06:34:48;;;;;;;;;;;;;;;19.35;100.00;98771.38;5005588;28;20000;-80
2021/08/19 06:37:14;;;;;;;;;;;;;;;19.41;100.00;98765.72;4983244;28;20020;-80
2021/08/19 06:39:39;;;;;;;;;;;;;;;19.37;100.00;98772.13;4995763;28;19921;-80
2021/08/19 06:42:04;;;;;;;;;;;;;;;18.82;100.00;98782.06;4996255;28;19967;-80
2021/08/19 06:44:30;;;;;;;;;;;;;;;18.58;100.00;98785.38;5013930;28;19928;-80
2021/08/19 06:46:55;;;;;;;;;;;;;;;18.30;100.00;98791.63;4994556;28;19926;-80
2021/08/19 06:49:21;;;;;;;;;;;;;;;18.60;100.00;98782.69;5010295;28;20049;-81
2021/08/19 06:51:46;;;;;;;;;;;;;;;18.69;100.00;98792.47;4997371;28;20016;-80
2021/08/19 06:54:11;;;;;;;;;;;;;;;18.79;100.00;98788.34;5002253;28;19926;-80
2021/08/19 06:56:37;;;;;;;;;;;;;;;19.28;100.00;98785.84;4994907;28;20030;-79
2021/08/19 06:59:02;;;;;;;;;;;;;;;19.25;100.00;98783.41;5013745;28;19918;-80
2021/08/19 07:01:27;;;;;;;;;;;;;;;19.07;100.00;98786.41;5004923;28;19918;-80
2021/08/19 07:03:52;;;;;;;;;;;;;;;19.44;100.00;98778.56;4999169;28;20340;-80
2021/08/19 07:06:18;;;;;;;;;;;;;;;19.13;100.00;98788.56;4992900;28;19921;-80
2021/08/19 07:08:43;;;;;;;;;;;;;;;19.27;100.00;98781.53;5000485;28;19918;-80
2021/08/19 07:11:09;;;;;;;;;;;;;;;19.32;100.00;98782.06;4995576;28;19944;-80
2021/08/19 07:13:34;;;;;;;;;;;;;;;19.27;100.00;98781.53;4995985;28;19933;-80
2021/08/19 07:16:09;;;;;;;;;;;;;;;19.55;100.00;98781.22;4994960;28;19914;-81
2021/08/19 07:18:34;;;;;;;;;;;;;;;19.45;100.00;98777.59;5000655;28;20024;-81
2021/08/19 07:20:59;;;;;;;;;;;;;;;19.40;100.00;98787.56;5006862;28;19957;-81
2021/08/19 07:23:25;;;;;;;;;;;;;;;19.58;100.00;98783.59;5017278;28;19918;-81
2021/08/19 07:25:51;;;;;;;;;;;;;;;19.06;100.00;98799.56;5010749;28;19972;-81
2021/08/19 07:28:16;;;;;;;;;;;;;;;19.25;100.00;98799.09;5013000;28;19928;-81
2021/08/19 07:30:41;;;;;;;;;;;;;;;19.13;100.00;98795.56;5017185;28;19930;-81
2021/08/19 07:33:07;;;;;;;;;;;;;;;19.43;100.00;98797.78;5019079;28;19913;-80
2021/08/19 07:35:32;;;;;;;;;;;;;;;19.39;100.00;98804.19;5002668;28;19977;-81
2021/08/19 07:37:58;;;;;;;;;;;;;;;19.63;100.00;98797.16;4987231;28;19931;-81
2021/08/19 07:40:24;;;;;;;;;;;;;;;19.38;100.00;98807.72;4990357;28;19949;-82
2021/08/19 07:42:54;;;;;;;;;;;;;;;18.92;100.00;98818.78;5017715;28;19925;-81
2021/08/19 07:45:20;;;;;;;;;;;;;;;18.94;100.00;98825.56;5002128;28;19921;-81
2021/08/19 07:47:45;;;;;;;;;;;;;;;19.37;100.00;98808.69;5015896;28;19921;-81
2021/08/19 07:50:11;;;;;;;;;;;;;;;19.55;100.00;98807.34;5018661;28;20004;-81
2021/08/19 07:52:37;;;;;;;;;;;;;;;18.99;100.00;98814.81;5004338;28;19925;-81
2021/08/19 07:55:03;;;;;;;;;;;;;;;19.25;100.00;98820.81;4997511;28;19924;-81
2021/08/19 07:57:38;;;;;;;;;;;;;;;18.99;100.00;98820.03;4998559;28;19922;-81
2021/08/19 08:00:04;;;;;;;;;;;;;;;19.19;100.00;98822.06;4997550;28;20589;-81
2021/08/19 08:02:30;;;;;;;;;;;;;;;18.84;100.00;98827.16;4998485;28;19914;-82
2021/08/19 08:04:55;;;;;;;;;;;;;;;19.13;100.00;98827.72;5000373;28;19924;-82
2021/08/19 08:07:21;;;;;;;;;;;;;;;18.76;100.00;98830.25;5000469;28;19918;-82
2021/08/19 08:09:46;;;;;;;;;;;;;;;18.89;100.00;98832.06;5014808;28;19917;-81
2021/08/19 08:12:11;;;;;;;;;;;;;;;18.98;100.00;98839.25;4999978;28;19926;-80
2021/08/19 08:14:37;;;;;;;;;;;;;;;19.28;100.00;98835.44;4994129;28;20779;-81
2021/08/19 08:17:02;;;;;;;;;;;;;;;19.45;100.00;98832.44;4994049;28;19925;-80
2021/08/19 08:19:27;;;;;;;;;;;;;;;19.82;100.00;98828.06;5009127;28;19914;-80
2021/08/19 08:21:53;;;;;;;;;;;;;;;19.78;100.00;98829.22;4992083;28;19918;-80
2021/08/19 08:24:19;;;;;;;;;;;;;;;19.69;100.00;98827.28;4991368;28;19969;-81
2021/08/19 08:26:44;;;;;;;;;;;;;;;19.41;100.00;98833.63;4992794;28;19953;-81
2021/08/19 08:29:10;;;;;;;;;;;;;;;19.75;100.00;98826.00;4991828;28;20423;-80
2021/08/19 08:31:35;;;;;;;;;;;;;;;19.08;100.00;98842.03;4993349;28;19932;-80
2021/08/19 08:34:00;;;;;;;;;;;;;;;19.48;100.00;98831.38;5002196;28;19970;-81
2021/08/19 08:36:26;;;;;;;;;;;;;;;18.56;100.00;98839.41;4998887;28;20421;-82
2021/08/19 08:38:51;;;;;;;;;;;;;;;18.87;100.00;98841.75;4991530;28;19921;-81
2021/08/19 08:41:20;;;;;;;;;;;;;;;18.89;100.00;98852.94;4992475;28;19914;-81
2021/08/19 08:43:46;;;;;;;;;;;;;;;19.45;100.00;98837.66;4993249;28;20000;-82
2021/08/19 08:46:12;;;;;;;;;;;;;;;19.31;100.00;98845.66;4995286;28;19922;-81
2021/08/19 08:48:38;;;;;;;;;;;;;;;19.49;100.00;98836.50;4993530;28;20009;-81
2021/08/19 08:51:03;;;;;;;;;;;;;;;19.51;100.00;98837.25;4993262;28;20377;-81
2021/08/19 08:53:28;;;;;;;;;;;;;;;19.34;100.00;98840.22;4998684;28;19917;-81
2021/08/19 08:55:54;;;;;;;;;;;;;;;19.62;100.00;98842.53;4999907;28;19925;-81
2021/08/19 08:58:20;;;;;;;;;;;;;;;19.47;100.00;98848.03;4994395;28;19968;-81
2021/08/19 09:00:46;;;;;;;;;;;;;;;19.40;100.00;98852.84;4996632;28;20386;-81
2021/08/19 09:03:12;;;;;;;;;;;;;;;19.38;100.00;98852.09;5003636;28;19929;-81
2021/08/19 09:05:38;;;;;;;;;;;;;;;19.17;100.00;98860.50;5003730;28;19956;-80
2021/08/19 09:08:04;;;;;;;;;;;;;;;19.51;100.00;98852.91;4996465;28;19918;-81
2021/08/19 09:10:30;;;;;;;;;;;;;;;19.37;100.00;98850.47;4995271;28;19925;-80
2021/08/19 09:12:56;;;;;;;;;;;;;;;19.11;100.00;98860.97;4981756;28;20385;-81
2021/08/19 09:15:24;;;;;;;;;;;;;;;19.21;100.00;98861.97;4998490;28;20156;-82
2021/08/19 09:17:55;;;;;;;;;;;;;;;19.52;100.00;98854.56;4997875;28;19922;-81
2021/08/19 09:20:21;;;;;;;;;;;;;;;18.98;100.00;98862.75;4994903;28;19967;-81
2021/08/19 09:22:54;;;;;;;;;;;;;;;19.78;100.00;98860.59;4996625;28;19924;-81
2021/08/19 09:25:39;;;;;;;;;;;;;;;19.76;100.00;98857.25;4996508;28;19964;-81
2021/08/19 09:28:08;;;;;;;;;;;;;;;19.32;100.00;98857.78;5012534;28;19917;-81
2021/08/19 09:30:33;;;;;;;;;;;;;;;19.08;100.00;98865.53;5013120;28;19917;-82
2021/08/19 09:32:58;;;;;;;;;;;;;;;19.75;100.00;98857.34;5003455;28;20193;-82
2021/08/19 09:35:24;;;;;;;;;;;;;;;19.89;100.00;98851.13;4997030;28;19917;-81
2021/08/19 09:37:49;;;;;;;;;;;;;;;19.90;100.00;98856.25;5010627;28;20324;-82
2021/08/19 09:40:16;;;;;;;;;;;;;;;19.67;100.00;98859.66;4992533;28;20008;-81
2021/08/19 09:42:41;;;;;;;;;;;;;;;19.74;100.00;98863.53;5001693;28;19987;-83
2021/08/19 09:45:16;;;;;;;;;;;;;;;19.37;100.00;98871.34;4996042;28;19917;-81
2021/08/19 09:47:42;;;;;;;;;;;;;;;19.16;100.00;98873.69;4995687;28;20447;-81
2021/08/19 09:50:12;;;;;;;;;;;;;;;19.32;100.00;98881.28;4998206;28;19964;-83
2021/08/19 09:52:37;;;;;;;;;;;;;;;19.38;100.00;98879.06;4992996;28;19918;-81
2021/08/19 09:55:18;;;;;;;;;;;;;;;18.81;100.00;98882.13;4997299;28;20408;-81
2021/08/19 09:57:44;;;;;;;;;;;;;;;19.56;100.00;98876.91;4996956;28;20663;-82
2021/08/19 10:00:11;;;;;;;;;;;;;;;19.75;100.00;98865.19;5015239;28;19921;-82
2021/08/19 10:02:36;;;;;;;;;;;;;;;19.92;100.00;98859.59;4994551;28;19917;-82
2021/08/19 10:05:01;;;;;;;;;;;;;;;20.15;100.00;98862.28;4998506;28;20341;-82
2021/08/19 10:07:27;;;;;;;;;;;;;;;20.52;100.00;98851.69;5011605;28;20285;-82
2021/08/19 10:09:52;;;;;;;;;;;;;;;20.63;100.00;98857.00;4996469;28;19941;-82
2021/08/19 10:12:17;;;;;;;;;;;;;;;20.82;100.00;98854.66;5011832;28;19961;-82
2021/08/19 10:14:43;;;;;;;;;;;;;;;20.43;100.00;98853.22;4997760;28;19929;-83
2021/08/19 10:17:08;;;;;;;;;;;;;;;20.94;100.00;98860.72;4992468;28;19949;-82
2021/08/19 10:19:37;;;;;;;;;;;;;;;20.53;100.00;98851.59;4994151;28;19918;-81
2021/08/19 10:22:03;;;;;;;;;;;;;;;20.81;100.00;98858.19;4994464;28;19972;-79
2021/08/19 10:24:30;;;;;;;;;;;;;;;21.07;100.00;98856.22;4997305;28;20405;-82
2021/08/19 10:27:06;;;;;;;;;;;;;;;20.71;100.00;98846.78;5004139;28;20015;-81
2021/08/19 10:29:43;;;;;;;;;;;;;;;20.94;100.00;98845.00;5003836;28;19924;-82
2021/08/19 10:32:21;;;;;;;;;;;;;;;21.25;100.00;98853.91;4992692;28;19918;-82
2021/08/19 10:34:55;;;;;;;;;;;;;;;20.78;100.00;98850.59;4995548;28;19968;-81
2021/08/19 10:37:20;;;;;;;;;;;;;;;20.64;100.00;98848.19;4995938;28;19926;-82
2021/08/19 10:39:45;;;;;;;;;;;;;;;20.41;100.00;98845.50;4994602;28;20406;-83
2021/08/19 10:42:30;;;;;;;;;;;;;;;20.09;100.00;98857.50;5007282;28;19960;-81
2021/08/19 10:44:55;;;;;;;;;;;;;;;20.45;100.00;98856.56;4992503;28;19924;-82
2021/08/19 10:47:39;;;;;;;;;;;;;;;20.60;100.00;98846.78;5005243;28;19918;-82
2021/08/19 10:50:22;;;;;;;;;;;;;;;20.45;100.00;98849.53;5012441;28;20436;-82
2021/08/19 10:52:51;;;;;;;;;;;;;;;21.02;100.00;98841.78;5012567;28;19914;-82
2021/08/19 10:55:19;;;;;;;;;;;;;;;20.14;100.00;98851.00;5002480;28;19929;-82
2021/08/19 10:57:56;;;;;;;;;;;;;;;20.11;100.00;98858.22;5000340;28;20417;-82
2021/08/19 11:00:34;;;;;;;;;;;;;;;19.46;100.00;98870.69;5011596;28;20503;-82
2021/08/19 11:03:00;;;;;;;;;;;;;;;18.29;100.00;98888.19;5013170;28;20469;-83
2021/08/19 11:05:26;;;;;;;;;;;;;;;18.16;100.00;98915.06;5014439;28;19965;-83
2021/08/19 11:07:53;;;;;;;;;;;;;;;19.10;100.00;98916.69;5004365;28;20063;-82
2021/08/19 11:10:29;;;;;;;;;;;;;;;19.04;100.00;98914.50;4993636;28;19928;-82
2021/08/19 11:13:08;;;;;;;;;;;;;;;19.27;100.00;98899.03;4995932;28;19977;-82
2021/08/19 11:15:54;;;;;;;;;;;;;;;18.68;100.00;98909.94;4994451;28;20373;-82
2021/08/19 11:18:29;;;;;;;;;;;;;;;19.10;100.00;98902.81;5012620;28;19932;-82
2021/08/19 11:20:55;;;;;;;;;;;;;;;19.67;100.00;98898.84;5010571;28;19922;-82
2021/08/19 11:23:26;;;;;;;;;;;;;;;19.28;100.00;98895.50;4994121;28;19917;-82
2021/08/19 11:25:51;;;;;;;;;;;;;;;18.52;100.00;98910.13;5003004;28;20439;-82
2021/08/19 11:28:17;;;;;;;;;;;;;;;18.71;100.00;98926.25;4993825;28;19922;-82
2021/08/19 11:30:44;;;;;;;;;;;;;;;18.72;100.00;98925.28;5007034;28;19921;-82
2021/08/19 11:33:11;;;;;;;;;;;;;;;19.42;100.00;98911.03;4997742;28;19913;-80
2021/08/19 11:35:37;;;;;;;;;;;;;;;19.48;100.00;98905.38;4991932;28;19925;-81
2021/08/19 11:38:09;;;;;;;;;;;;;;;19.23;100.00;98904.47;5000900;28;19960;-82
2021/08/19 11:40:35;;;;;;;;;;;;;;;19.73;100.00;98893.19;4993850;28;19917;-82
2021/08/19 11:43:17;;;;;;;;;;;;;;;20.48;100.00;98891.19;4993799;28;20004;-82
2021/08/19 11:45:42;;;;;;;;;;;;;;;20.78;100.00;98882.00;4994358;28;19924;-81
2021/08/19 11:48:08;;;;;;;;;;;;;;;21.15;100.00;98876.56;5000285;28;19914;-82
2021/08/19 11:50:33;;;;;;;;;;;;;;;20.86;100.00;98874.38;5000252;28;19917;-82
2021/08/19 11:53:01;;;;;;;;;;;;;;;21.01;100.00;98882.03;5001377;28;19925;-81
2021/08/19 11:55:30;;;;;;;;;;;;;;;21.06;100.00;98875.47;5006892;28;19917;-81
2021/08/19 11:58:14;;;;;;;;;;;;;;;20.48;100.00;98891.19;4989982;28;19922;-79
2021/08/19 12:01:02;;;;;;;;;;;;;;;20.86;100.00;98884.03;4998444;28;19945;-82
2021/08/19 12:03:27;;;;;;;;;;;;;;;21.24;100.00;98872.38;5004908;28;19921;-82
2021/08/19 12:06:00;;;;;;;;;;;;;;;20.91;100.00;98875.81;5009175;28;19920;-82
2021/08/19 12:08:28;;;;;;;;;;;;;;;20.28;100.00;98889.22;4993029;28;19925;-81
2021/08/19 12:10:56;;;;;;;;;;;;;;;21.23;100.00;98889.91;4993977;28;19913;-81
2021/08/19 12:13:21;;;;;;;;;;;;;;;21.14;100.00;98890.56;5001145;28;19933;-81
2021/08/19 12:15:47;;;;;;;;;;;;;;;21.25;100.00;98887.13;4992977;28;19914;-81
2021/08/19 12:18:13;;;;;;;;;;;;;;;21.60;100.00;98883.56;5007278;28;19922;-81
2021/08/19 12:20:38;;;;;;;;;;;;;;;21.78;100.00;98879.50;4985664;28;19930;-81
2021/08/19 12:23:15;;;;;;;;;;;;;;;21.35;100.00;98884.63;5001711;28;19922;-82
2021/08/19 12:25:41;;;;;;;;;;;;;;;20.80;100.00;98887.97;5005487;28;19940;-79
2021/08/19 12:28:07;;;;;;;;;;;;;;;20.87;100.00;98881.31;5008260;28;19917;-79
2021/08/19 12:30:33;;;;;;;;;;;;;;;21.08;100.00;98888.47;5011234;28;19929;-79
2021/08/19 12:33:02;;;;;;;;;;;;;;;21.42;100.00;98878.00;4992135;28;20031;-79